sensor_id;sensor_type;location;lat;lon;timestamp;temperature;humidity
54684;DHT22;40582;53.100;6.686;2023-04-25T00:01:25;7.70;99.90
54684;DHT22;40582;53.100;6.686;2023-04-25T00:03:50;7.70;99.90
54684;DHT22;40582;53.100;6.686;2023-04-25T00:06:16;7.70;99.90
54684;DHT22;40582;53.100;6.686;2023-04-25T00:08:43;7.70;99.90
54684;DHT22;40582;53.100;6.686;2023-04-25T00:11:09;7.70;99.90
54684;DHT22;40582;53.100;6.686;2023-04-25T00:13:35;7.70;99.90
54684;DHT22;40582;53.100;6.686;2023-04-25T00:16:00;7.70;99.90
54684;DHT22;40582;53.100;6.686;2023-04-25T00:18:28;7.70;99.90
54684;DHT22;40582;53.100;6.686;2023-04-25T00:20:55;7.70;99.90
54684;DHT22;40582;53.100;6.686;2023-04-25T00:23:21;7.70;99.90
54684;DHT22;40582;53.100;6.686;2023-04-25T00:25:48;7.60;99.90
54684;DHT22;40582;53.100;6.686;2023-04-25T00:28:15;7.60;99.90
54684;DHT22;40582;53.100;6.686;2023-04-25T00:30:41;7.60;99.90
54684;DHT22;40582;53.100;6.686;2023-04-25T00:33:07;7.60;99.90
54684;DHT22;40582;53.100;6.686;2023-04-25T00:35:33;7.60;99.90
54684;DHT22;40582;53.100;6.686;2023-04-25T00:37:59;7.60;99.90
54684;DHT22;40582;53.100;6.686;2023-04-25T00:40:26;7.60;99.90
54684;DHT22;40582;53.100;6.686;2023-04-25T00:42:52;7.60;99.90
54684;DHT22;40582;53.100;6.686;2023-04-25T00:45:18;7.60;99.90
54684;DHT22;40582;53.100;6.686;2023-04-25T00:47:45;7.60;99.90
54684;DHT22;40582;53.100;6.686;2023-04-25T00:50:11;7.60;99.90
54684;DHT22;40582;53.100;6.686;2023-04-25T00:52:39;7.60;99.90
54684;DHT22;40582;53.100;6.686;2023-04-25T00:55:06;7.60;99.90
54684;DHT22;40582;53.100;6.686;2023-04-25T00:57:33;7.50;99.90
54684;DHT22;40582;53.100;6.686;2023-04-25T00:59:59;7.50;99.90
54684;DHT22;40582;53.100;6.686;2023-04-25T01:02:26;7.50;99.90
54684;DHT22;40582;53.100;6.686;2023-04-25T01:04:52;7.40;99.90
54684;DHT22;40582;53.100;6.686;2023-04-25T01:07:19;7.40;99.90
54684;DHT22;40582;53.100;6.686;2023-04-25T01:09:46;7.30;99.90
54684;DHT22;40582;53.100;6.686;2023-04-25T01:12:12;7.40;99.90
54684;DHT22;40582;53.100;6.686;2023-04-25T01:14:39;7.40;99.90
54684;DHT22;40582;53.100;6.686;2023-04-25T01:17:05;7.40;99.90
54684;DHT22;40582;53.100;6.686;2023-04-25T01:19:33;7.30;99.90
54684;DHT22;40582;53.100;6.686;2023-04-25T01:21:59;7.30;99.90
54684;DHT22;40582;53.100;6.686;2023-04-25T01:24:25;7.30;99.90
54684;DHT22;40582;53.100;6.686;2023-04-25T01:26:51;7.30;99.90
54684;DHT22;40582;53.100;6.686;2023-04-25T01:29:21;7.30;99.90
54684;DHT22;40582;53.100;6.686;2023-04-25T01:31:47;7.30;99.90
54684;DHT22;40582;53.100;6.686;2023-04-25T01:34:13;7.30;99.90
54684;DHT22;40582;53.100;6.686;2023-04-25T01:36:39;7.30;99.90
54684;DHT22;40582;53.100;6.686;2023-04-25T01:39:06;7.30;99.90
54684;DHT22;40582;53.100;6.686;2023-04-25T01:41:33;7.20;99.90
54684;DHT22;40582;53.100;6.686;2023-04-25T01:44:00;7.20;99.90
54684;DHT22;40582;53.100;6.686;2023-04-25T01:46:27;7.20;99.90
54684;DHT22;40582;53.100;6.686;2023-04-25T01:48:53;7.20;99.90
54684;DHT22;40582;53.100;6.686;2023-04-25T01:51:18;7.20;99.90
54684;DHT22;40582;53.100;6.686;2023-04-25T01:53:44;7.20;99.90
54684;DHT22;40582;53.100;6.686;2023-04-25T01:56:10;7.10;99.90
54684;DHT22;40582;53.100;6.686;2023-04-25T01:58:36;7.20;99.90
54684;DHT22;40582;53.100;6.686;2023-04-25T02:01:02;7.10;99.90
54684;DHT22;40582;53.100;6.686;2023-04-25T02:03:29;7.10;99.90
54684;DHT22;40582;53.100;6.686;2023-04-25T02:05:55;7.10;99.90
54684;DHT22;40582;53.100;6.686;2023-04-25T02:08:21;7.10;99.90
54684;DHT22;40582;53.100;6.686;2023-04-25T02:10:46;7.10;99.90
54684;DHT22;40582;53.100;6.686;2023-04-25T02:13:12;7.00;99.90
54684;DHT22;40582;53.100;6.686;2023-04-25T02:15:38;7.00;99.90
54684;DHT22;40582;53.100;6.686;2023-04-25T02:18:04;7.00;99.90
54684;DHT22;40582;53.100;6.686;2023-04-25T02:20:31;7.10;99.90
54684;DHT22;40582;53.100;6.686;2023-04-25T02:22:57;7.10;99.90
54684;DHT22;40582;53.100;6.686;2023-04-25T02:25:23;7.10;99.90
54684;DHT22;40582;53.100;6.686;2023-04-25T02:27:49;7.00;99.90
54684;DHT22;40582;53.100;6.686;2023-04-25T02:30:16;6.90;99.90
54684;DHT22;40582;53.100;6.686;2023-04-25T02:32:42;6.90;99.90
54684;DHT22;40582;53.100;6.686;2023-04-25T02:35:09;6.80;99.90
54684;DHT22;40582;53.100;6.686;2023-04-25T02:37:36;6.70;99.90
54684;DHT22;40582;53.100;6.686;2023-04-25T02:40:02;6.70;99.90
54684;DHT22;40582;53.100;6.686;2023-04-25T02:42:29;6.70;99.90
54684;DHT22;40582;53.100;6.686;2023-04-25T02:44:55;6.70;99.90
54684;DHT22;40582;53.100;6.686;2023-04-25T02:47:21;6.70;99.90
54684;DHT22;40582;53.100;6.686;2023-04-25T02:49:46;6.80;99.90
54684;DHT22;40582;53.100;6.686;2023-04-25T02:52:12;6.80;99.90
54684;DHT22;40582;53.100;6.686;2023-04-25T02:54:40;6.80;99.90
54684;DHT22;40582;53.100;6.686;2023-04-25T02:57:06;6.80;99.90
54684;DHT22;40582;53.100;6.686;2023-04-25T02:59:32;6.70;99.90
54684;DHT22;40582;53.100;6.686;2023-04-25T03:01:58;6.70;99.90
54684;DHT22;40582;53.100;6.686;2023-04-25T03:04:24;6.70;99.90
54684;DHT22;40582;53.100;6.686;2023-04-25T03:06:50;6.70;99.90
54684;DHT22;40582;53.100;6.686;2023-04-25T03:09:16;6.70;99.90
54684;DHT22;40582;53.100;6.686;2023-04-25T03:11:43;6.70;99.90
54684;DHT22;40582;53.100;6.686;2023-04-25T03:14:09;6.70;99.90
54684;DHT22;40582;53.100;6.686;2023-04-25T03:16:35;6.70;99.90
54684;DHT22;40582;53.100;6.686;2023-04-25T03:19:02;6.70;99.90
54684;DHT22;40582;53.100;6.686;2023-04-25T03:21:28;6.70;99.90
54684;DHT22;40582;53.100;6.686;2023-04-25T03:23:53;6.70;99.90
54684;DHT22;40582;53.100;6.686;2023-04-25T03:26:19;6.70;99.90
54684;DHT22;40582;53.100;6.686;2023-04-25T03:28:46;6.70;99.90
54684;DHT22;40582;53.100;6.686;2023-04-25T03:31:11;6.70;99.90
54684;DHT22;40582;53.100;6.686;2023-04-25T03:33:37;6.70;99.90
54684;DHT22;40582;53.100;6.686;2023-04-25T03:36:03;6.70;99.90
54684;DHT22;40582;53.100;6.686;2023-04-25T03:38:29;6.70;99.90
54684;DHT22;40582;53.100;6.686;2023-04-25T03:40:54;6.60;99.90
54684;DHT22;40582;53.100;6.686;2023-04-25T03:43:21;6.60;99.90
54684;DHT22;40582;53.100;6.686;2023-04-25T03:45:47;6.60;99.90
54684;DHT22;40582;53.100;6.686;2023-04-25T03:48:13;6.50;99.90
54684;DHT22;40582;53.100;6.686;2023-04-25T03:50:38;6.40;99.90
54684;DHT22;40582;53.100;6.686;2023-04-25T03:53:04;6.40;99.90
54684;DHT22;40582;53.100;6.686;2023-04-25T03:55:30;6.30;99.90
54684;DHT22;40582;53.100;6.686;2023-04-25T03:57:57;6.20;99.90
54684;DHT22;40582;53.100;6.686;2023-04-25T04:00:24;6.20;99.90
54684;DHT22;40582;53.100;6.686;2023-04-25T04:02:49;6.10;99.90
54684;DHT22;40582;53.100;6.686;2023-04-25T04:05:15;6.00;99.90
54684;DHT22;40582;53.100;6.686;2023-04-25T04:07:41;6.00;99.90
54684;DHT22;40582;53.100;6.686;2023-04-25T04:10:09;5.90;99.90
54684;DHT22;40582;53.100;6.686;2023-04-25T04:12:35;5.90;99.90
54684;DHT22;40582;53.100;6.686;2023-04-25T04:15:02;5.80;99.90
54684;DHT22;40582;53.100;6.686;2023-04-25T04:17:29;5.80;99.90
54684;DHT22;40582;53.100;6.686;2023-04-25T04:19:55;5.70;99.90
54684;DHT22;40582;53.100;6.686;2023-04-25T04:22:22;5.60;99.90
54684;DHT22;40582;53.100;6.686;2023-04-25T04:24:47;5.60;99.90
54684;DHT22;40582;53.100;6.686;2023-04-25T04:27:17;5.60;99.90
54684;DHT22;40582;53.100;6.686;2023-04-25T04:29:43;5.50;99.90
54684;DHT22;40582;53.100;6.686;2023-04-25T04:32:09;5.40;99.90
54684;DHT22;40582;53.100;6.686;2023-04-25T04:34:35;5.40;99.90
54684;DHT22;40582;53.100;6.686;2023-04-25T04:37:01;5.40;99.90
54684;DHT22;40582;53.100;6.686;2023-04-25T04:39:27;5.40;99.90
54684;DHT22;40582;53.100;6.686;2023-04-25T04:41:53;5.40;99.90
54684;DHT22;40582;53.100;6.686;2023-04-25T04:44:19;5.30;99.90
54684;DHT22;40582;53.100;6.686;2023-04-25T04:46:45;5.70;99.90
54684;DHT22;40582;53.100;6.686;2023-04-25T04:49:12;5.30;99.90
54684;DHT22;40582;53.100;6.686;2023-04-25T04:51:39;5.60;99.90
54684;DHT22;40582;53.100;6.686;2023-04-25T04:54:06;5.30;99.90
54684;DHT22;40582;53.100;6.686;2023-04-25T04:56:32;5.40;99.90
54684;DHT22;40582;53.100;6.686;2023-04-25T04:58:58;5.40;99.90
54684;DHT22;40582;53.100;6.686;2023-04-25T05:01:25;5.50;99.90
54684;DHT22;40582;53.100;6.686;2023-04-25T05:03:51;5.50;99.90
54684;DHT22;40582;53.100;6.686;2023-04-25T05:06:19;5.60;99.90
54684;DHT22;40582;53.100;6.686;2023-04-25T05:08:45;5.80;99.90
54684;DHT22;40582;53.100;6.686;2023-04-25T05:11:10;6.00;99.90
54684;DHT22;40582;53.100;6.686;2023-04-25T05:13:36;6.40;99.90
54684;DHT22;40582;53.100;6.686;2023-04-25T05:16:02;6.40;99.90
54684;DHT22;40582;53.100;6.686;2023-04-25T05:18:29;6.50;99.90
54684;DHT22;40582;53.100;6.686;2023-04-25T05:20:55;6.60;99.90
54684;DHT22;40582;53.100;6.686;2023-04-25T05:23:21;6.60;99.90
54684;DHT22;40582;53.100;6.686;2023-04-25T05:25:47;6.60;99.90
54684;DHT22;40582;53.100;6.686;2023-04-25T05:28:13;6.60;99.90
54684;DHT22;40582;53.100;6.686;2023-04-25T05:30:39;6.50;99.90
54684;DHT22;40582;53.100;6.686;2023-04-25T05:33:05;6.40;99.90
54684;DHT22;40582;53.100;6.686;2023-04-25T05:35:31;6.30;99.90
54684;DHT22;40582;53.100;6.686;2023-04-25T05:37:56;6.30;99.90
54684;DHT22;40582;53.100;6.686;2023-04-25T05:40:22;6.40;99.90
54684;DHT22;40582;53.100;6.686;2023-04-25T05:42:48;6.40;99.90
54684;DHT22;40582;53.100;6.686;2023-04-25T05:45:13;6.40;99.90
54684;DHT22;40582;53.100;6.686;2023-04-25T05:47:39;6.50;99.90
54684;DHT22;40582;53.100;6.686;2023-04-25T05:50:05;6.60;99.90
54684;DHT22;40582;53.100;6.686;2023-04-25T05:52:31;6.70;99.90
54684;DHT22;40582;53.100;6.686;2023-04-25T05:54:57;7.20;99.90
54684;DHT22;40582;53.100;6.686;2023-04-25T05:57:25;8.50;99.90
54684;DHT22;40582;53.100;6.686;2023-04-25T05:59:51;10.00;99.90
54684;DHT22;40582;53.100;6.686;2023-04-25T06:02:18;11.20;99.90
54684;DHT22;40582;53.100;6.686;2023-04-25T06:04:44;11.80;99.90
54684;DHT22;40582;53.100;6.686;2023-04-25T06:07:09;11.60;99.90
54684;DHT22;40582;53.100;6.686;2023-04-25T06:09:35;11.70;99.90
54684;DHT22;40582;53.100;6.686;2023-04-25T06:12:01;11.30;99.90
54684;DHT22;40582;53.100;6.686;2023-04-25T06:14:27;11.20;99.90
54684;DHT22;40582;53.100;6.686;2023-04-25T06:16:53;11.40;99.90
54684;DHT22;40582;53.100;6.686;2023-04-25T06:19:18;11.40;99.90
54684;DHT22;40582;53.100;6.686;2023-04-25T06:21:44;11.30;99.90
54684;DHT22;40582;53.100;6.686;2023-04-25T06:24:10;10.90;99.90
54684;DHT22;40582;53.100;6.686;2023-04-25T06:26:36;10.30;99.90
54684;DHT22;40582;53.100;6.686;2023-04-25T06:29:01;9.90;99.90
54684;DHT22;40582;53.100;6.686;2023-04-25T06:31:27;9.60;99.90
54684;DHT22;40582;53.100;6.686;2023-04-25T06:33:54;9.50;99.90
54684;DHT22;40582;53.100;6.686;2023-04-25T06:36:23;9.60;99.90
54684;DHT22;40582;53.100;6.686;2023-04-25T06:38:51;9.50;99.90
54684;DHT22;40582;53.100;6.686;2023-04-25T06:41:18;9.30;99.90
54684;DHT22;40582;53.100;6.686;2023-04-25T06:43:44;9.40;99.90
54684;DHT22;40582;53.100;6.686;2023-04-25T06:46:10;9.90;99.90
54684;DHT22;40582;53.100;6.686;2023-04-25T06:48:36;10.40;99.90
54684;DHT22;40582;53.100;6.686;2023-04-25T06:51:02;11.60;99.90
54684;DHT22;40582;53.100;6.686;2023-04-25T06:53:28;13.10;99.90
54684;DHT22;40582;53.100;6.686;2023-04-25T06:55:54;14.30;99.90
54684;DHT22;40582;53.100;6.686;2023-04-25T06:58:19;15.20;99.90
54684;DHT22;40582;53.100;6.686;2023-04-25T07:00:45;15.70;99.90
54684;DHT22;40582;53.100;6.686;2023-04-25T07:03:10;16.50;99.90
54684;DHT22;40582;53.100;6.686;2023-04-25T07:05:37;16.40;99.90
54684;DHT22;40582;53.100;6.686;2023-04-25T07:08:02;15.40;99.90
54684;DHT22;40582;53.100;6.686;2023-04-25T07:10:28;14.20;99.90
54684;DHT22;40582;53.100;6.686;2023-04-25T07:12:54;13.20;99.90
54684;DHT22;40582;53.100;6.686;2023-04-25T07:15:20;12.30;99.90
54684;DHT22;40582;53.100;6.686;2023-04-25T07:17:45;11.60;99.90
54684;DHT22;40582;53.100;6.686;2023-04-25T07:20:12;11.00;99.90
54684;DHT22;40582;53.100;6.686;2023-04-25T07:22:38;10.60;99.90
54684;DHT22;40582;53.100;6.686;2023-04-25T07:25:04;10.70;99.90
54684;DHT22;40582;53.100;6.686;2023-04-25T07:27:31;11.70;99.90
54684;DHT22;40582;53.100;6.686;2023-04-25T07:29:57;12.70;99.90
54684;DHT22;40582;53.100;6.686;2023-04-25T07:32:23;14.00;99.90
54684;DHT22;40582;53.100;6.686;2023-04-25T07:34:48;14.30;99.90
54684;DHT22;40582;53.100;6.686;2023-04-25T07:37:14;13.60;99.90
54684;DHT22;40582;53.100;6.686;2023-04-25T07:39:40;13.20;99.90
54684;DHT22;40582;53.100;6.686;2023-04-25T07:42:06;12.90;99.90
54684;DHT22;40582;53.100;6.686;2023-04-25T07:44:36;12.70;99.90
54684;DHT22;40582;53.100;6.686;2023-04-25T07:47:06;12.70;99.90
54684;DHT22;40582;53.100;6.686;2023-04-25T07:49:38;12.50;99.90
54684;DHT22;40582;53.100;6.686;2023-04-25T07:52:06;12.40;99.90
54684;DHT22;40582;53.100;6.686;2023-04-25T07:54:32;12.40;99.90
54684;DHT22;40582;53.100;6.686;2023-04-25T07:56:58;12.50;99.90
54684;DHT22;40582;53.100;6.686;2023-04-25T07:59:24;12.70;99.90
54684;DHT22;40582;53.100;6.686;2023-04-25T08:01:50;12.80;99.90
54684;DHT22;40582;53.100;6.686;2023-04-25T08:04:16;13.00;99.90
54684;DHT22;40582;53.100;6.686;2023-04-25T08:06:42;12.90;99.90
54684;DHT22;40582;53.100;6.686;2023-04-25T08:09:08;12.70;99.90
54684;DHT22;40582;53.100;6.686;2023-04-25T08:11:35;12.60;99.90
54684;DHT22;40582;53.100;6.686;2023-04-25T08:14:01;12.70;99.90
54684;DHT22;40582;53.100;6.686;2023-04-25T08:16:27;12.60;99.90
54684;DHT22;40582;53.100;6.686;2023-04-25T08:18:53;12.60;99.90
54684;DHT22;40582;53.100;6.686;2023-04-25T08:21:19;12.70;99.90
54684;DHT22;40582;53.100;6.686;2023-04-25T08:23:44;12.90;99.90
54684;DHT22;40582;53.100;6.686;2023-04-25T08:26:10;13.20;99.90
54684;DHT22;40582;53.100;6.686;2023-04-25T08:28:36;13.90;99.90
54684;DHT22;40582;53.100;6.686;2023-04-25T08:31:02;13.90;99.90
54684;DHT22;40582;53.100;6.686;2023-04-25T08:33:28;14.30;99.90
54684;DHT22;40582;53.100;6.686;2023-04-25T08:35:54;14.30;99.90
54684;DHT22;40582;53.100;6.686;2023-04-25T08:38:20;14.00;99.90
54684;DHT22;40582;53.100;6.686;2023-04-25T08:40:49;13.90;99.90
54684;DHT22;40582;53.100;6.686;2023-04-25T08:43:18;13.60;99.90
54684;DHT22;40582;53.100;6.686;2023-04-25T08:45:44;13.30;99.90
54684;DHT22;40582;53.100;6.686;2023-04-25T08:48:15;13.40;99.90
54684;DHT22;40582;53.100;6.686;2023-04-25T08:50:52;13.40;99.90
54684;DHT22;40582;53.100;6.686;2023-04-25T08:53:39;13.70;99.90
54684;DHT22;40582;53.100;6.686;2023-04-25T08:56:08;13.70;99.90
54684;DHT22;40582;53.100;6.686;2023-04-25T08:58:38;13.70;99.90
54684;DHT22;40582;53.100;6.686;2023-04-25T09:01:04;14.00;99.90
54684;DHT22;40582;53.100;6.686;2023-04-25T09:03:30;14.10;99.90
54684;DHT22;40582;53.100;6.686;2023-04-25T09:05:56;14.20;99.90
54684;DHT22;40582;53.100;6.686;2023-04-25T09:08:23;14.30;99.90
54684;DHT22;40582;53.100;6.686;2023-04-25T09:10:49;14.40;99.90
54684;DHT22;40582;53.100;6.686;2023-04-25T09:13:24;14.30;99.90
54684;DHT22;40582;53.100;6.686;2023-04-25T09:15:52;14.10;99.20
54684;DHT22;40582;53.100;6.686;2023-04-25T09:18:29;13.90;99.90
54684;DHT22;40582;53.100;6.686;2023-04-25T09:21:09;13.80;99.90
54684;DHT22;40582;53.100;6.686;2023-04-25T09:23:40;13.80;99.90
54684;DHT22;40582;53.100;6.686;2023-04-25T09:26:07;13.80;99.90
54684;DHT22;40582;53.100;6.686;2023-04-25T09:28:34;13.80;99.90
54684;DHT22;40582;53.100;6.686;2023-04-25T09:31:01;13.80;99.90
54684;DHT22;40582;53.100;6.686;2023-04-25T09:33:29;13.90;99.90
54684;DHT22;40582;53.100;6.686;2023-04-25T09:36:08;13.80;99.90
54684;DHT22;40582;53.100;6.686;2023-04-25T09:38:41;13.80;99.90
54684;DHT22;40582;53.100;6.686;2023-04-25T09:41:08;13.80;99.90
54684;DHT22;40582;53.100;6.686;2023-04-25T09:43:35;13.70;99.90
54684;DHT22;40582;53.100;6.686;2023-04-25T09:46:01;13.90;99.90
54684;DHT22;40582;53.100;6.686;2023-04-25T09:48:28;13.90;99.50
54684;DHT22;40582;53.100;6.686;2023-04-25T09:51:27;14.50;99.90
54684;DHT22;40582;53.100;6.686;2023-04-25T09:53:53;14.90;99.90
54684;DHT22;40582;53.100;6.686;2023-04-25T09:56:20;14.50;99.90
54684;DHT22;40582;53.100;6.686;2023-04-25T09:58:47;14.00;99.90
54684;DHT22;40582;53.100;6.686;2023-04-25T10:01:14;13.60;99.90
54684;DHT22;40582;53.100;6.686;2023-04-25T10:03:42;13.40;99.90
54684;DHT22;40582;53.100;6.686;2023-04-25T10:06:29;13.10;99.90
54684;DHT22;40582;53.100;6.686;2023-04-25T10:08:55;13.10;99.90
54684;DHT22;40582;53.100;6.686;2023-04-25T10:11:24;13.10;99.90
54684;DHT22;40582;53.100;6.686;2023-04-25T10:13:52;13.30;99.90
54684;DHT22;40582;53.100;6.686;2023-04-25T10:16:18;13.30;99.90
54684;DHT22;40582;53.100;6.686;2023-04-25T10:18:44;13.10;99.90
54684;DHT22;40582;53.100;6.686;2023-04-25T10:21:10;13.20;99.90
54684;DHT22;40582;53.100;6.686;2023-04-25T10:23:37;13.30;99.90
54684;DHT22;40582;53.100;6.686;2023-04-25T10:26:03;13.30;99.90
54684;DHT22;40582;53.100;6.686;2023-04-25T10:28:29;13.40;99.90
54684;DHT22;40582;53.100;6.686;2023-04-25T10:31:07;13.50;99.90
54684;DHT22;40582;53.100;6.686;2023-04-25T10:33:36;13.70;99.90
54684;DHT22;40582;53.100;6.686;2023-04-25T10:36:13;14.00;99.90
54684;DHT22;40582;53.100;6.686;2023-04-25T10:38:40;14.20;99.70
54684;DHT22;40582;53.100;6.686;2023-04-25T10:41:09;14.20;99.90
54684;DHT22;40582;53.100;6.686;2023-04-25T10:43:37;13.80;99.90
54684;DHT22;40582;53.100;6.686;2023-04-25T10:51:24;13.00;99.90
54684;DHT22;40582;53.100;6.686;2023-04-25T10:54:07;12.90;99.90
54684;DHT22;40582;53.100;6.686;2023-04-25T10:56:33;13.10;99.90
54684;DHT22;40582;53.100;6.686;2023-04-25T10:59:16;13.50;99.90
54684;DHT22;40582;53.100;6.686;2023-04-25T11:01:43;14.20;99.90
54684;DHT22;40582;53.100;6.686;2023-04-25T11:04:29;14.70;99.90
54684;DHT22;40582;53.100;6.686;2023-04-25T11:07:17;14.70;99.90
54684;DHT22;40582;53.100;6.686;2023-04-25T11:09:49;14.70;99.30
54684;DHT22;40582;53.100;6.686;2023-04-25T11:12:15;14.20;99.90
54684;DHT22;40582;53.100;6.686;2023-04-25T11:14:42;13.90;99.90
54684;DHT22;40582;53.100;6.686;2023-04-25T11:17:08;13.80;99.90
54684;DHT22;40582;53.100;6.686;2023-04-25T11:19:35;13.80;99.90
54684;DHT22;40582;53.100;6.686;2023-04-25T11:22:02;13.80;99.90
54684;DHT22;40582;53.100;6.686;2023-04-25T11:24:33;13.90;99.90
54684;DHT22;40582;53.100;6.686;2023-04-25T11:27:00;13.90;99.80
54684;DHT22;40582;53.100;6.686;2023-04-25T11:29:31;13.60;99.70
54684;DHT22;40582;53.100;6.686;2023-04-25T11:31:57;13.20;99.50
54684;DHT22;40582;53.100;6.686;2023-04-25T11:34:24;13.20;99.80
54684;DHT22;40582;53.100;6.686;2023-04-25T11:36:51;13.20;99.30
54684;DHT22;40582;53.100;6.686;2023-04-25T11:39:19;13.10;98.80
54684;DHT22;40582;53.100;6.686;2023-04-25T11:41:45;13.10;98.30
54684;DHT22;40582;53.100;6.686;2023-04-25T11:44:11;13.30;98.30
54684;DHT22;40582;53.100;6.686;2023-04-25T11:46:37;13.50;98.30
54684;DHT22;40582;53.100;6.686;2023-04-25T11:49:03;13.50;98.30
54684;DHT22;40582;53.100;6.686;2023-04-25T11:51:30;13.60;98.60
54684;DHT22;40582;53.100;6.686;2023-04-25T11:54:03;13.90;98.90
54684;DHT22;40582;53.100;6.686;2023-04-25T11:56:29;14.10;98.40
54684;DHT22;40582;53.100;6.686;2023-04-25T11:59:01;14.20;98.70
54684;DHT22;40582;53.100;6.686;2023-04-25T12:01:29;14.30;98.80
54684;DHT22;40582;53.100;6.686;2023-04-25T12:03:56;14.30;98.00
54684;DHT22;40582;53.100;6.686;2023-04-25T12:06:26;14.40;97.70
54684;DHT22;40582;53.100;6.686;2023-04-25T12:09:03;14.30;96.70
54684;DHT22;40582;53.100;6.686;2023-04-25T12:11:32;14.10;96.90
54684;DHT22;40582;53.100;6.686;2023-04-25T12:14:03;14.10;96.70
54684;DHT22;40582;53.100;6.686;2023-04-25T12:16:29;14.30;97.40
54684;DHT22;40582;53.100;6.686;2023-04-25T12:18:56;14.40;97.50
54684;DHT22;40582;53.100;6.686;2023-04-25T12:21:22;14.70;97.40
54684;DHT22;40582;53.100;6.686;2023-04-25T12:23:48;14.90;97.10
54684;DHT22;40582;53.100;6.686;2023-04-25T12:26:14;14.90;96.90
54684;DHT22;40582;53.100;6.686;2023-04-25T12:28:39;14.60;96.70
54684;DHT22;40582;53.100;6.686;2023-04-25T12:31:10;14.50;96.10
54684;DHT22;40582;53.100;6.686;2023-04-25T12:33:37;14.10;96.00
54684;DHT22;40582;53.100;6.686;2023-04-25T12:36:04;13.90;95.50
54684;DHT22;40582;53.100;6.686;2023-04-25T12:38:39;13.60;95.60
54684;DHT22;40582;53.100;6.686;2023-04-25T12:41:05;13.60;95.70
54684;DHT22;40582;53.100;6.686;2023-04-25T12:43:31;13.50;96.60
54684;DHT22;40582;53.100;6.686;2023-04-25T12:45:57;13.20;96.60
54684;DHT22;40582;53.100;6.686;2023-04-25T12:48:23;13.00;96.90
54684;DHT22;40582;53.100;6.686;2023-04-25T12:50:50;12.80;96.90
54684;DHT22;40582;53.100;6.686;2023-04-25T12:53:20;12.70;96.80
54684;DHT22;40582;53.100;6.686;2023-04-25T12:55:47;12.80;96.60
54684;DHT22;40582;53.100;6.686;2023-04-25T12:58:17;13.10;96.90
54684;DHT22;40582;53.100;6.686;2023-04-25T13:00:43;13.50;96.60
54684;DHT22;40582;53.100;6.686;2023-04-25T13:03:09;13.90;96.40
54684;DHT22;40582;53.100;6.686;2023-04-25T13:05:36;14.00;96.30
54684;DHT22;40582;53.100;6.686;2023-04-25T13:08:03;13.80;96.00
54684;DHT22;40582;53.100;6.686;2023-04-25T13:10:29;13.70;96.10
54684;DHT22;40582;53.100;6.686;2023-04-25T13:12:55;13.80;96.70
54684;DHT22;40582;53.100;6.686;2023-04-25T13:15:21;13.80;96.50
54684;DHT22;40582;53.100;6.686;2023-04-25T13:17:47;13.80;95.90
54684;DHT22;40582;53.100;6.686;2023-04-25T13:20:13;13.90;95.30
54684;DHT22;40582;53.100;6.686;2023-04-25T13:22:42;14.00;95.00
54684;DHT22;40582;53.100;6.686;2023-04-25T13:25:08;13.90;94.70
54684;DHT22;40582;53.100;6.686;2023-04-25T13:27:35;13.50;94.90
54684;DHT22;40582;53.100;6.686;2023-04-25T13:30:03;13.30;94.70
54684;DHT22;40582;53.100;6.686;2023-04-25T13:32:42;13.30;95.00
54684;DHT22;40582;53.100;6.686;2023-04-25T13:35:09;13.40;95.50
54684;DHT22;40582;53.100;6.686;2023-04-25T13:37:36;13.30;96.10
54684;DHT22;40582;53.100;6.686;2023-04-25T13:40:04;13.10;96.60
54684;DHT22;40582;53.100;6.686;2023-04-25T13:42:31;13.00;97.20
54684;DHT22;40582;53.100;6.686;2023-04-25T13:44:57;12.80;97.30
54684;DHT22;40582;53.100;6.686;2023-04-25T13:47:23;12.70;97.00
54684;DHT22;40582;53.100;6.686;2023-04-25T13:49:49;12.80;97.10
54684;DHT22;40582;53.100;6.686;2023-04-25T13:52:16;12.90;97.30
54684;DHT22;40582;53.100;6.686;2023-04-25T13:54:41;13.00;97.30
54684;DHT22;40582;53.100;6.686;2023-04-25T13:57:10;13.00;97.70
54684;DHT22;40582;53.100;6.686;2023-04-25T13:59:40;13.30;97.70
54684;DHT22;40582;53.100;6.686;2023-04-25T14:02:09;13.40;96.90
54684;DHT22;40582;53.100;6.686;2023-04-25T14:04:34;13.10;96.40
54684;DHT22;40582;53.100;6.686;2023-04-25T14:07:01;12.80;96.30
54684;DHT22;40582;53.100;6.686;2023-04-25T14:09:28;12.70;95.80
54684;DHT22;40582;53.100;6.686;2023-04-25T14:11:54;12.70;95.20
54684;DHT22;40582;53.100;6.686;2023-04-25T14:14:21;12.60;95.20
54684;DHT22;40582;53.100;6.686;2023-04-25T14:16:48;12.70;95.50
54684;DHT22;40582;53.100;6.686;2023-04-25T14:19:17;12.60;95.90
54684;DHT22;40582;53.100;6.686;2023-04-25T14:21:43;12.50;96.10
54684;DHT22;40582;53.100;6.686;2023-04-25T14:24:09;12.40;96.30
54684;DHT22;40582;53.100;6.686;2023-04-25T14:26:36;12.20;96.10
54684;DHT22;40582;53.100;6.686;2023-04-25T14:29:03;12.10;96.20
54684;DHT22;40582;53.100;6.686;2023-04-25T14:31:29;12.00;96.10
54684;DHT22;40582;53.100;6.686;2023-04-25T14:33:55;12.00;96.20
54684;DHT22;40582;53.100;6.686;2023-04-25T14:36:20;12.00;96.70
54684;DHT22;40582;53.100;6.686;2023-04-25T14:38:46;11.90;96.20
54684;DHT22;40582;53.100;6.686;2023-04-25T14:41:12;11.90;96.30
54684;DHT22;40582;53.100;6.686;2023-04-25T14:43:38;11.80;96.50
54684;DHT22;40582;53.100;6.686;2023-04-25T14:46:07;11.90;97.20
54684;DHT22;40582;53.100;6.686;2023-04-25T14:48:34;12.10;97.80
54684;DHT22;40582;53.100;6.686;2023-04-25T14:50:59;12.20;97.50
54684;DHT22;40582;53.100;6.686;2023-04-25T14:53:26;12.40;97.00
54684;DHT22;40582;53.100;6.686;2023-04-25T14:55:52;12.50;96.70
54684;DHT22;40582;53.100;6.686;2023-04-25T14:58:18;12.60;96.80
54684;DHT22;40582;53.100;6.686;2023-04-25T15:00:46;12.50;96.80
54684;DHT22;40582;53.100;6.686;2023-04-25T15:03:15;12.50;96.50
54684;DHT22;40582;53.100;6.686;2023-04-25T15:05:42;12.50;95.90
54684;DHT22;40582;53.100;6.686;2023-04-25T15:08:09;12.50;95.80
54684;DHT22;40582;53.100;6.686;2023-04-25T15:10:38;12.50;96.20
54684;DHT22;40582;53.100;6.686;2023-04-25T15:13:04;12.50;96.80
54684;DHT22;40582;53.100;6.686;2023-04-25T15:15:30;12.30;96.90
54684;DHT22;40582;53.100;6.686;2023-04-25T15:17:56;12.20;96.60
54684;DHT22;40582;53.100;6.686;2023-04-25T15:20:22;12.10;96.70
54684;DHT22;40582;53.100;6.686;2023-04-25T15:22:49;12.00;96.80
54684;DHT22;40582;53.100;6.686;2023-04-25T15:25:15;12.10;97.00
54684;DHT22;40582;53.100;6.686;2023-04-25T15:27:44;12.10;97.50
54684;DHT22;40582;53.100;6.686;2023-04-25T15:30:12;12.10;97.40
54684;DHT22;40582;53.100;6.686;2023-04-25T15:32:45;12.10;96.90
54684;DHT22;40582;53.100;6.686;2023-04-25T15:35:12;12.10;96.60
54684;DHT22;40582;53.100;6.686;2023-04-25T15:37:38;12.00;96.50
54684;DHT22;40582;53.100;6.686;2023-04-25T15:40:13;11.90;96.40
54684;DHT22;40582;53.100;6.686;2023-04-25T15:42:43;11.80;96.20